Time;durP1;ratioP1;P1;durP2;ratioP2;P2;SDS_P1;SDS_P2;PMS_P1;PMS_P2;Temp;Humidity;BMP_temperature;BMP_pressure;BME280_temperature;BME280_humidity;BME280_pressure;Samples;Min_cycle;Max_cycle;Signal;HPM_P1;HPM_P2
2021/05/18 00:00:13;;;;;;;18.38;6.45;;;9.60;99.90;;;;;;5046653;28;20033;-68
2021/05/18 00:02:39;;;;;;;29.48;8.07;;;9.70;99.90;;;;;;5039249;28;20045;-65
2021/05/18 00:05:08;;;;;;;19.92;5.75;;;9.60;99.90;;;;;;5039951;28;20402;-68
2021/05/18 00:07:35;;;;;;;14.27;5.63;;;9.60;99.90;;;;;;5036210;28;20033;-69
2021/05/18 00:12:47;;;;;;;15.93;5.90;;;9.60;99.90;;;;;;5037328;28;20076;-69
2021/05/18 00:15:16;;;;;;;16.15;5.88;;;9.60;99.90;;;;;;5037719;28;20037;-67
2021/05/18 00:17:43;;;;;;;16.92;6.15;;;9.60;99.90;;;;;;5039045;28;20478;-69
2021/05/18 00:20:11;;;;;;;14.90;5.97;;;9.60;99.90;;;;;;5035372;28;20124;-69
2021/05/18 00:22:37;;;;;;;14.32;5.63;;;9.60;99.90;;;;;;5039585;28;20033;-70
2021/05/18 00:25:05;;;;;;;18.05;6.35;;;9.60;99.90;;;;;;5035762;28;20064;-69
2021/05/18 00:27:31;;;;;;;18.90;6.15;;;9.60;99.90;;;;;;5035635;28;20403;-69
2021/05/18 00:29:57;;;;;;;13.63;5.50;;;9.70;99.90;;;;;;5037429;28;20040;-69
2021/05/18 00:32:23;;;;;;;14.32;6.18;;;9.70;99.90;;;;;;5037240;28;20030;-69
2021/05/18 00:34:54;;;;;;;21.52;6.13;;;9.70;99.90;;;;;;5037122;28;20029;-69
2021/05/18 00:37:21;;;;;;;14.23;6.45;;;9.70;99.90;;;;;;5042889;28;20033;-68
2021/05/18 00:39:47;;;;;;;15.02;6.78;;;9.70;99.90;;;;;;5041834;28;20120;-69
2021/05/18 00:42:15;;;;;;;16.73;6.22;;;9.70;99.90;;;;;;5039609;28;20040;-69
2021/05/18 00:44:41;;;;;;;15.40;6.22;;;9.80;99.90;;;;;;5038364;28;20040;-65
2021/05/18 00:47:07;;;;;;;19.25;5.85;;;9.80;99.90;;;;;;5035275;28;20037;-69
2021/05/18 00:49:32;;;;;;;15.60;5.60;;;9.80;99.90;;;;;;5033725;28;20029;-68
2021/05/18 00:51:58;;;;;;;15.10;5.43;;;9.80;99.90;;;;;;5037962;28;20041;-67
2021/05/18 00:54:26;;;;;;;21.95;6.63;;;9.80;99.90;;;;;;5036475;28;20099;-69
2021/05/18 00:59:36;;;;;;;21.90;7.10;;;9.80;99.90;;;;;;5035068;28;20065;-68
2021/05/18 01:02:02;;;;;;;20.85;6.90;;;9.70;99.90;;;;;;5037181;28;20029;-67
2021/05/18 01:04:28;;;;;;;18.60;6.53;;;9.70;99.90;;;;;;5036192;28;20501;-69
2021/05/18 01:06:54;;;;;;;23.00;7.30;;;9.70;99.90;;;;;;5038490;28;20048;-64
2021/05/18 01:09:19;;;;;;;17.00;6.03;;;9.60;99.90;;;;;;5034331;28;20284;-66
2021/05/18 01:11:48;;;;;;;14.25;6.05;;;9.70;99.90;;;;;;5035305;28;20045;-69
2021/05/18 01:14:17;;;;;;;16.52;5.85;;;9.70;99.90;;;;;;5035874;28;20039;-65
2021/05/18 01:16:45;;;;;;;17.48;6.90;;;9.70;99.90;;;;;;5038928;28;20040;-69
2021/05/18 01:19:13;;;;;;;21.85;7.03;;;9.70;99.90;;;;;;5035068;28;20037;-69
2021/05/18 01:21:39;;;;;;;15.52;6.38;;;9.70;99.90;;;;;;5036526;28;20095;-68
2021/05/18 01:24:06;;;;;;;22.75;7.07;;;9.70;99.90;;;;;;5034816;28;20033;-69
2021/05/18 01:26:34;;;;;;;17.63;6.55;;;9.80;99.90;;;;;;5038420;28;20033;-68
2021/05/18 01:29:00;;;;;;;15.18;6.60;;;9.80;99.90;;;;;;5034269;28;20418;-69
2021/05/18 01:31:26;;;;;;;23.80;6.88;;;9.90;99.90;;;;;;5034045;28;20033;-69
2021/05/18 01:33:53;;;;;;;19.65;7.35;;;9.90;99.90;;;;;;5034755;28;20021;-69
2021/05/18 01:36:20;;;;;;;22.38;6.65;;;9.90;99.90;;;;;;5034535;28;20052;-69
2021/05/18 01:38:58;;;;;;;19.10;6.60;;;10.00;99.90;;;;;;5038774;28;20033;-69
2021/05/18 01:44:09;;;;;;;18.95;7.00;;;10.00;99.90;;;;;;5036094;28;20121;-69
2021/05/18 01:46:35;;;;;;;18.98;7.07;;;10.10;99.90;;;;;;5035007;28;20030;-69
2021/05/18 01:49:08;;;;;;;25.08;6.97;;;10.10;99.90;;;;;;5035061;28;20029;-66
2021/05/18 01:51:36;;;;;;;17.73;5.43;;;10.20;99.90;;;;;;5039600;28;20032;-68
2021/05/18 01:54:11;;;;;;;15.70;5.78;;;10.20;99.90;;;;;;5035084;28;20505;-69
2021/05/18 01:59:07;;;;;;;22.17;6.57;;;10.40;99.90;;;;;;5035838;28;20039;-69
2021/05/18 02:01:33;;;;;;;19.48;6.43;;;10.30;99.90;;;;;;5037000;28;20057;-69
2021/05/18 02:03:59;;;;;;;19.35;6.30;;;10.30;99.90;;;;;;5035574;28;20022;-69
2021/05/18 02:06:25;;;;;;;19.70;5.90;;;10.30;99.90;;;;;;5034613;28;20032;-69
2021/05/18 02:08:52;;;;;;;17.38;6.10;;;10.30;99.90;;;;;;5038208;28;20036;-66
2021/05/18 02:11:17;;;;;;;14.65;6.45;;;10.30;99.90;;;;;;5035090;28;20037;-69
2021/05/18 02:13:48;;;;;;;18.08;5.93;;;10.30;99.90;;;;;;5036760;28;20032;-67
2021/05/18 02:16:19;;;;;;;;;;;10.30;99.90;;;;;;5037238;28;20075;-69
2021/05/18 02:21:35;;;;;;;22.85;6.82;;;10.30;99.90;;;;;;5037446;28;20191;-69
2021/05/18 02:26:44;;;;;;;14.88;5.93;;;10.30;99.90;;;;;;5032186;28;20414;-69
2021/05/18 02:29:10;;;;;;;18.23;6.15;;;10.30;99.90;;;;;;5038065;28;20032;-69
2021/05/18 02:31:36;;;;;;;17.55;6.70;;;10.30;99.90;;;;;;5039020;28;20026;-69
2021/05/18 02:34:01;;;;;;;20.90;5.50;;;10.30;99.90;;;;;;5041418;28;20057;-66
2021/05/18 02:36:27;;;;;;;20.85;6.32;;;10.30;99.90;;;;;;5039913;28;20055;-69
2021/05/18 02:38:54;;;;;;;17.48;6.13;;;10.30;99.90;;;;;;5040993;28;20047;-68
2021/05/18 02:41:20;;;;;;;19.48;5.82;;;10.20;99.90;;;;;;5038496;28;20033;-69
2021/05/18 02:43:54;;;;;;;16.95;5.97;;;10.20;99.90;;;;;;5039720;28;20053;-68
2021/05/18 02:49:08;;;;;;;23.77;6.85;;;10.20;99.90;;;;;;5040405;28;20116;-66
2021/05/18 02:51:34;;;;;;;18.30;6.80;;;10.20;99.90;;;;;;5037112;28;20029;-69
2021/05/18 02:54:00;;;;;;;20.85;7.65;;;10.20;99.90;;;;;;5038306;28;20090;-69
2021/05/18 02:59:19;;;;;;;19.13;7.07;;;10.20;99.90;;;;;;5030681;28;20064;-69
2021/05/18 03:01:47;;;;;;;16.30;7.47;;;10.20;99.90;;;;;;5039192;28;20061;-69
2021/05/18 03:04:13;;;;;;;22.60;7.88;;;10.20;99.90;;;;;;5038006;28;20041;-66
2021/05/18 03:06:39;;;;;;;20.90;8.45;;;10.20;99.90;;;;;;5039457;28;20037;-69
2021/05/18 03:09:09;;;;;;;19.38;7.55;;;10.20;99.90;;;;;;5037878;28;20086;-70
2021/05/18 03:11:36;;;;;;;;;;;10.20;99.90;;;;;;5040645;28;20037;-68
2021/05/18 03:14:02;;;;;;;18.23;7.53;;;10.20;99.90;;;;;;5036817;28;19999;-68
2021/05/18 03:16:28;;;;;;;21.67;7.63;;;10.20;99.90;;;;;;5040408;28;20041;-69
2021/05/18 03:18:54;;;;;;;24.27;7.32;;;10.20;99.90;;;;;;5036760;28;20505;-69
2021/05/18 03:21:19;;;;;;;19.60;7.80;;;10.20;99.90;;;;;;5040271;28;20033;-69
2021/05/18 03:23:45;;;;;;;22.10;7.25;;;10.30;99.90;;;;;;5038352;28;20036;-68
2021/05/18 03:26:10;;;;;;;21.85;8.55;;;10.30;99.90;;;;;;5039118;28;20035;-69
2021/05/18 03:28:36;;;;;;;19.67;7.03;;;10.30;99.90;;;;;;5038853;28;20033;-67
2021/05/18 03:36:11;;;;;;;17.40;6.95;;;10.30;99.90;;;;;;5039840;28;20120;-66
2021/05/18 03:41:16;;;;;;;20.95;8.57;;;10.40;99.90;;;;;;5036605;28;20132;-69
2021/05/18 03:54:31;;;;;;;16.55;7.70;;;10.30;99.90;;;;;;5038671;28;20040;-66
2021/05/18 04:02:45;;;;;;;20.80;7.55;;;10.40;99.90;;;;;;5040064;28;20154;-69
2021/05/18 04:16:52;;;;;;;18.77;8.00;;;10.40;99.90;;;;;;5040828;28;20470;-67
2021/05/18 04:19:02;;;;;;;18.17;8.73;;;10.50;99.90;;;;;;5037910;28;20052;-70
2021/05/18 04:48:11;;;;;;;24.83;9.52;;;10.60;99.90;;;;;;5037682;28;20117;-70
2021/05/18 04:51:41;;;;;;;19.67;8.60;;;10.70;99.90;;;;;;5038625;28;20079;-70
2021/05/18 04:59:38;;;;;;;22.20;10.10;;;10.80;99.90;;;;;;5013470;28;20065;-70
2021/05/18 05:02:36;;;;;;;20.80;9.18;;;10.90;99.90;;;;;;5030850;28;20029;-70
2021/05/18 05:07:47;;;;;;;15.70;8.02;;;10.90;99.90;;;;;;5039540;28;20098;-70
2021/05/18 05:10:13;;;;;;;17.48;8.50;;;11.00;99.90;;;;;;5039014;28;20220;-70
2021/05/18 05:12:55;;;;;;;24.90;9.63;;;11.10;99.90;;;;;;5036597;28;20627;-70
2021/05/18 05:15:21;;;;;;;21.73;9.60;;;11.10;99.90;;;;;;5037788;28;20107;-70
2021/05/18 05:17:46;;;;;;;20.38;9.48;;;11.20;99.90;;;;;;5037372;28;20037;-70
2021/05/18 05:20:12;;;;;;;19.38;8.55;;;11.30;99.90;;;;;;5033753;28;20075;-71
2021/05/18 05:22:38;;;;;;;18.73;8.18;;;11.30;99.90;;;;;;5035795;28;20053;-70
2021/05/18 05:25:04;;;;;;;15.70;7.97;;;11.40;99.90;;;;;;5036132;28;20043;-70
2021/05/18 05:27:30;;;;;;;23.45;8.23;;;11.40;99.90;;;;;;5036580;28;20128;-70
2021/05/18 05:29:55;;;;;;;25.63;8.57;;;11.40;99.90;;;;;;5035444;28;20187;-70
2021/05/18 05:32:21;;;;;;;19.45;8.70;;;11.50;99.90;;;;;;5038169;28;20060;-70
2021/05/18 05:34:48;;;;;;;23.27;8.60;;;11.40;99.90;;;;;;5037682;28;20041;-70
2021/05/18 05:37:15;;;;;;;25.95;8.65;;;11.50;99.90;;;;;;5035405;28;20029;-70
2021/05/18 05:39:40;;;;;;;17.73;8.25;;;11.50;99.90;;;;;;5035092;28;20406;-70
2021/05/18 05:42:06;;;;;;;16.80;8.32;;;11.50;99.90;;;;;;5035766;28;20041;-70
2021/05/18 05:44:33;;;;;;;21.15;8.10;;;11.60;99.90;;;;;;5037086;28;20049;-70
2021/05/18 05:46:58;;;;;;;18.08;7.97;;;11.70;99.90;;;;;;5038741;28;20530;-70
2021/05/18 05:49:24;;;;;;;16.55;8.05;;;11.70;99.90;;;;;;5036352;28;20051;-70
2021/05/18 05:51:50;;;;;;;19.15;8.05;;;11.80;99.90;;;;;;5037814;28;20039;-70
2021/05/18 05:54:16;;;;;;;18.02;8.40;;;11.90;99.90;;;;;;5037018;28;20033;-70
2021/05/18 05:56:41;;;;;;;18.13;7.63;;;12.00;99.90;;;;;;5035124;28;20059;-70
2021/05/18 05:59:08;;;;;;;18.38;7.32;;;12.10;99.90;;;;;;5038417;28;20678;-71
2021/05/18 06:01:34;;;;;;;15.27;7.65;;;12.10;99.90;;;;;;5041178;28;20048;-70
2021/05/18 06:04:00;;;;;;;16.08;7.47;;;12.20;99.90;;;;;;5035425;28;20041;-70
2021/05/18 06:06:26;;;;;;;16.88;7.00;;;12.30;99.90;;;;;;5038442;28;20047;-74
2021/05/18 06:08:51;;;;;;;14.18;6.90;;;12.40;99.90;;;;;;5041793;28;20494;-69
2021/05/18 06:11:22;;;;;;;14.73;7.60;;;12.40;99.90;;;;;;5037579;28;20037;-70
2021/05/18 06:13:57;;;;;;;17.63;6.28;;;12.50;99.90;;;;;;5035794;28;20108;-70
2021/05/18 06:48:22;;;;;;;15.82;4.95;;;18.70;99.90;;;;;;5039048;28;20083;-70
2021/05/18 06:50:49;;;;;;;9.10;4.22;;;18.50;99.90;;;;;;5039501;28;20036;-70
2021/05/18 06:53:14;;;;;;;7.60;3.97;;;18.30;99.90;;;;;;5037112;28;20033;-71
2021/05/18 06:55:40;;;;;;;11.13;3.67;;;18.00;99.90;;;;;;5039367;28;20769;-70
2021/05/18 06:58:08;;;;;;;7.57;3.20;;;17.50;99.90;;;;;;5034663;28;20041;-70
2021/05/18 07:00:37;;;;;;;7.65;4.05;;;17.20;99.90;;;;;;5037646;28;20040;-71
2021/05/18 07:03:05;;;;;;;9.55;3.92;;;16.60;99.90;;;;;;5036993;28;20045;-71
2021/05/18 07:10:46;;;;;;;8.02;4.05;;;17.10;99.90;;;;;;5038627;28;20733;-71
2021/05/18 07:13:14;;;;;;;10.73;3.92;;;17.50;99.90;;;;;;5034817;28;20052;-71
2021/05/18 07:15:40;;;;;;;7.75;4.15;;;17.40;99.90;;;;;;5038427;28;20781;-70
2021/05/18 07:18:06;;;;;;;8.63;3.72;;;17.30;99.90;;;;;;5041228;28;20068;-71
2021/05/18 07:20:32;;;;;;;10.70;3.72;;;17.60;99.90;;;;;;5037422;28;20072;-70
2021/05/18 07:23:01;;;;;;;5.38;3.08;;;18.30;99.90;;;;;;5040046;28;20136;-71
2021/05/18 07:25:27;;;;;;;8.27;3.90;;;19.10;99.90;;;;;;5038625;28;20638;-71
2021/05/18 07:27:53;;;;;;;9.13;3.88;;;20.00;99.90;;;;;;5039928;28;20037;-71
2021/05/18 07:30:19;;;;;;;4.72;2.63;;;20.60;99.60;;;;;;5038449;28;20045;-71
2021/05/18 07:32:45;;;;;;;7.70;3.65;;;20.60;98.40;;;;;;5040000;28;20385;-71
2021/05/18 07:35:11;;;;;;;5.25;2.78;;;19.80;98.00;;;;;;5033693;28;20137;-72
2021/05/18 07:37:37;;;;;;;7.97;3.22;;;19.10;99.90;;;;;;5035801;28;20029;-71
2021/05/18 07:40:04;;;;;;;7.70;3.75;;;18.60;99.90;;;;;;5035907;28;20042;-71
2021/05/18 07:42:30;;;;;;;5.85;2.97;;;18.20;99.90;;;;;;5041605;28;20333;-70
2021/05/18 07:44:56;;;;;;;7.03;2.92;;;17.60;99.90;;;;;;5039655;28;20162;-71
2021/05/18 07:47:23;;;;;;;7.65;3.53;;;17.30;99.90;;;;;;5040511;28;20052;-71
2021/05/18 07:49:51;;;;;;;8.10;3.25;;;17.30;99.90;;;;;;5035866;28;20036;-71
2021/05/18 08:00:52;;;;;;;7.78;3.65;;;18.20;99.90;;;;;;5040368;28;21109;-73
2021/05/18 08:05:49;;;;;;;7.20;3.58;;;17.10;99.90;;;;;;5037268;28;20041;-70
2021/05/18 08:08:16;;;;;;;5.53;3.35;;;16.70;99.90;;;;;;5035857;28;20044;-72
2021/05/18 08:13:09;;;;;;;8.15;3.53;;;16.50;99.90;;;;;;5037414;28;20608;-72
2021/05/18 08:15:44;;;;;;;6.55;3.60;;;17.00;99.90;;;;;;5036282;28;20040;-71
2021/05/18 10:36:41;;;;;;;3.05;1.42;;;17.60;99.90;;;;;;5037434;28;20120;-70
2021/05/18 10:39:33;;;;;;;3.38;1.17;;;17.60;99.90;;;;;;5033157;28;20095;-70
2021/05/18 10:42:11;;;;;;;3.67;1.25;;;17.50;99.90;;;;;;5027327;28;20034;-68
2021/05/18 10:44:56;;;;;;;4.25;1.75;;;17.30;99.40;;;;;;5027091;28;20084;-69
2021/05/18 10:47:45;;;;;;;2.70;1.13;;;17.10;99.90;;;;;;5034972;28;20041;-69
2021/05/18 10:50:12;;;;;;;4.00;1.00;;;16.90;99.90;;;;;;5031844;28;20751;-71
2021/05/18 10:52:38;;;;;;;4.20;0.80;;;16.90;99.90;;;;;;5036302;28;20029;-70
2021/05/18 10:55:08;;;;;;;7.97;1.30;;;17.20;99.40;;;;;;5039226;28;20410;-69
2021/05/18 10:57:33;;;;;;;2.95;0.88;;;17.10;99.90;;;;;;5032894;28;20672;-71
2021/05/18 11:00:02;;;;;;;1.15;0.60;;;17.20;99.90;;;;;;5039165;28;20037;-71
2021/05/18 11:02:37;;;;;;;3.55;0.80;;;17.40;99.90;;;;;;5032786;28;20037;-68
2021/05/18 11:05:10;;;;;;;3.08;1.40;;;17.60;98.30;;;;;;5033759;28;20098;-70
2021/05/18 11:07:36;;;;;;;2.40;1.08;;;17.60;96.40;;;;;;5027555;28;20558;-69
2021/05/18 11:10:33;;;;;;;2.75;0.90;;;17.60;97.70;;;;;;5040111;28;20041;-69
2021/05/18 11:13:02;;;;;;;3.30;0.98;;;17.50;95.10;;;;;;5022971;28;20260;-68
2021/05/18 11:15:30;;;;;;;4.43;1.40;;;17.30;94.20;;;;;;5038368;28;20268;-71
2021/05/18 11:17:56;;;;;;;1.98;1.10;;;17.40;95.50;;;;;;5032110;28;20486;-70
2021/05/18 11:23:23;;;;;;;1.98;1.13;;;17.30;94.30;;;;;;5038045;28;20039;-71
2021/05/18 11:26:03;;;;;;;4.43;1.42;;;17.30;95.60;;;;;;5037370;28;21383;-70
2021/05/18 11:28:37;;;;;;;2.30;1.15;;;17.00;96.00;;;;;;5034327;28;20044;-70
2021/05/18 11:31:19;;;;;;;3.13;1.15;;;16.90;97.80;;;;;;5028380;28;20048;-68
2021/05/18 11:33:47;;;;;;;5.40;1.30;;;17.00;98.00;;;;;;5037802;28;20532;-70
2021/05/18 11:36:21;;;;;;;2.33;1.20;;;17.20;97.00;;;;;;5039521;28;20116;-70
2021/05/18 11:38:47;;;;;;;5.00;1.27;;;17.30;96.90;;;;;;5039395;28;20453;-70
2021/05/18 11:41:21;;;;;;;5.22;1.23;;;17.40;97.60;;;;;;5039991;28;20119;-68
2021/05/18 11:43:55;;;;;;;4.28;1.35;;;17.70;96.60;;;;;;5034816;28;20060;-70
2021/05/18 11:46:21;;;;;;;4.18;1.70;;;17.80;97.00;;;;;;5040794;28;20037;-69
2021/05/18 11:49:13;;;;;;;3.60;1.35;;;17.90;99.00;;;;;;5033511;28;20486;-70
2021/05/18 11:51:47;;;;;;;2.95;1.17;;;18.10;96.40;;;;;;5034956;28;20040;-69
2021/05/18 11:54:14;;;;;;;5.25;1.45;;;17.90;97.60;;;;;;5035417;28;20032;-69
2021/05/18 11:56:41;;;;;;;3.33;1.33;;;18.00;97.10;;;;;;5037117;28;20128;-70
2021/05/18 11:59:08;;;;;;;2.72;1.45;;;18.00;97.30;;;;;;5036037;28;20115;-67
2021/05/18 12:01:37;;;;;;;5.07;1.20;;;17.70;96.60;;;;;;5035001;28;20402;-69
2021/05/18 12:04:07;;;;;;;6.57;1.45;;;17.40;96.70;;;;;;5037120;28;20037;-69
2021/05/18 12:06:35;;;;;;;4.20;1.38;;;17.20;97.60;;;;;;5035311;28;20037;-68
2021/05/18 12:09:02;;;;;;;2.17;1.02;;;17.10;97.20;;;;;;5033884;28;20038;-69
2021/05/18 12:11:27;;;;;;;2.50;1.17;;;17.10;96.10;;;;;;5037489;28;20087;-69
2021/05/18 12:13:53;;;;;;;2.97;1.10;;;17.00;97.20;;;;;;5038311;28;20560;-69
2021/05/18 12:16:21;;;;;;;6.07;1.38;;;17.00;97.10;;;;;;5034805;28;20060;-70
2021/05/18 12:18:58;;;;;;;3.83;1.40;;;17.10;98.60;;;;;;5039167;28;20029;-70
2021/05/18 12:21:28;;;;;;;2.92;1.20;;;17.30;98.30;;;;;;5037911;28;20140;-67
2021/05/18 12:24:05;;;;;;;2.92;1.00;;;17.50;98.70;;;;;;5035181;28;20647;-69
2021/05/18 12:26:33;;;;;;;2.30;0.60;;;17.80;96.90;;;;;;5031543;28;20032;-69
2021/05/18 12:29:03;;;;;;;4.20;1.00;;;17.80;92.70;;;;;;5035836;28;20040;-68
2021/05/18 12:31:35;;;;;;;2.88;1.00;;;18.00;94.60;;;;;;5037620;28;20037;-69
2021/05/18 12:34:03;;;;;;;4.35;1.10;;;17.90;92.80;;;;;;5035257;28;20307;-69
2021/05/18 12:36:29;;;;;;;2.53;0.80;;;17.80;93.20;;;;;;5037307;28;20037;-68
2021/05/18 12:39:09;;;;;;;2.20;0.63;;;17.80;96.20;;;;;;5036977;28;20060;-68
2021/05/18 12:42:01;;;;;;;4.05;1.17;;;17.90;96.30;;;;;;5038159;28;20068;-69
2021/05/18 12:44:30;;;;;;;1.50;0.90;;;17.90;93.70;;;;;;5037351;28;20070;-68
2021/05/18 12:47:01;;;;;;;3.70;1.20;;;17.80;94.10;;;;;;5036200;28;20454;-68
2021/05/18 12:49:36;;;;;;;2.83;0.82;;;17.80;95.40;;;;;;5036913;28;20041;-70
2021/05/18 12:52:08;;;;;;;2.47;0.90;;;17.70;95.60;;;;;;5034888;28;20472;-69
2021/05/18 12:54:45;;;;;;;3.30;0.90;;;17.70;94.50;;;;;;5035401;28;20032;-67
2021/05/18 12:57:13;;;;;;;2.13;0.57;;;17.70;94.70;;;;;;5039815;28;20048;-70
2021/05/18 13:00:10;;;;;;;3.95;0.60;;;17.70;94.60;;;;;;5032969;28;20498;-67
2021/05/18 13:02:47;;;;;;;2.65;0.52;;;17.70;93.10;;;;;;5036331;28;20532;-69
2021/05/18 13:05:15;;;;;;;3.03;0.47;;;17.60;91.50;;;;;;5037167;28;20068;-69
2021/05/18 13:07:42;;;;;;;5.18;0.68;;;17.60;92.80;;;;;;5041412;28;20498;-67
2021/05/18 13:10:21;;;;;;;1.80;0.47;;;17.60;92.70;;;;;;5038630;28;20128;-68
2021/05/18 13:12:47;;;;;;;1.80;0.40;;;17.60;93.20;;;;;;5035320;28;20047;-68
2021/05/18 13:15:22;;;;;;;3.42;0.50;;;17.60;91.10;;;;;;5039036;28;20762;-68
2021/05/18 13:17:54;;;;;;;2.22;0.47;;;17.60;91.80;;;;;;5036962;28;20041;-68
2021/05/18 13:20:20;;;;;;;2.65;0.63;;;17.60;94.20;;;;;;5035443;28;20045;-69
2021/05/18 13:22:53;;;;;;;1.67;0.73;;;17.70;92.50;;;;;;5037842;28;20676;-68
2021/05/18 13:28:03;;;;;;;2.40;0.47;;;17.90;92.10;;;;;;5035555;28;20044;-69
2021/05/18 13:30:30;;;;;;;1.70;0.68;;;18.00;92.20;;;;;;5037391;28;20037;-69
2021/05/18 13:32:56;;;;;;;2.50;0.50;;;18.10;91.30;;;;;;5037501;28;20170;-68
2021/05/18 13:35:25;;;;;;;3.15;0.43;;;17.90;87.00;;;;;;5037910;28;20088;-69
2021/05/18 13:37:51;;;;;;;1.35;0.50;;;17.80;90.10;;;;;;5033899;28;20509;-68
2021/05/18 13:40:19;;;;;;;2.58;0.55;;;17.70;90.80;;;;;;5038398;28;20044;-68
2021/05/18 13:42:50;;;;;;;1.20;0.47;;;17.70;91.60;;;;;;5039379;28;20037;-68
2021/05/18 13:45:15;;;;;;;4.72;0.60;;;17.60;92.00;;;;;;5036525;28;20048;-68
2021/05/18 13:47:41;;;;;;;0.77;0.32;;;17.60;90.90;;;;;;5037628;28;20056;-67
2021/05/18 13:50:07;;;;;;;1.05;0.30;;;17.60;90.20;;;;;;5034920;28;20036;-68
2021/05/18 13:52:33;;;;;;;0.20;0.10;;;17.50;91.70;;;;;;5031680;28;20045;-69
2021/05/18 13:54:58;;;;;;;1.35;0.30;;;17.60;91.40;;;;;;5033451;28;20041;-66
2021/05/18 13:57:25;;;;;;;5.68;0.47;;;17.70;92.60;;;;;;5035439;28;20046;-67
2021/05/18 13:59:51;;;;;;;2.40;0.40;;;17.80;90.40;;;;;;5034946;28;20102;-69
2021/05/18 14:02:17;;;;;;;0.88;0.30;;;17.70;91.70;;;;;;5035291;28;20033;-70
2021/05/18 14:04:43;;;;;;;0.52;0.20;;;17.70;90.00;;;;;;5036760;28;20482;-68
2021/05/18 14:09:55;;;;;;;1.77;0.30;;;17.50;90.10;;;;;;5032785;28;20082;-68
2021/05/18 14:12:20;;;;;;;2.40;0.50;;;17.60;91.90;;;;;;5039161;28;20049;-70
2021/05/18 14:14:46;;;;;;;2.60;0.98;;;17.50;92.20;;;;;;5038567;28;20037;-69
2021/05/18 14:17:12;;;;;;;3.60;0.50;;;17.40;93.20;;;;;;5033307;28;20055;-68
2021/05/18 14:19:38;;;;;;;0.55;0.32;;;17.30;92.50;;;;;;5036125;28;20036;-69
2021/05/18 14:22:03;;;;;;;1.33;0.40;;;17.00;93.30;;;;;;5034536;28;20083;-66
2021/05/18 14:24:38;;;;;;;2.35;0.50;;;16.90;94.50;;;;;;5037201;28;20025;-69
2021/05/18 14:27:08;;;;;;;2.08;0.50;;;16.80;96.30;;;;;;5040028;28;20474;-69
2021/05/18 14:29:35;;;;;;;1.40;0.38;;;16.60;94.30;;;;;;5035128;28;20091;-67
2021/05/18 14:32:01;;;;;;;5.53;0.55;;;16.40;96.30;;;;;;5041410;28;20094;-69
2021/05/18 14:34:26;;;;;;;2.13;0.50;;;16.30;95.70;;;;;;5037603;28;20044;-68
2021/05/18 14:36:52;;;;;;;1.48;0.32;;;16.20;96.80;;;;;;5039279;28;20034;-69
2021/05/18 14:39:23;;;;;;;2.83;0.50;;;16.20;97.40;;;;;;5035990;28;20033;-69
2021/05/18 14:44:33;;;;;;;1.38;0.45;;;16.00;99.30;;;;;;5038011;28;20032;-69
2021/05/18 14:47:38;;;;;;;2.83;0.40;;;16.10;98.70;;;;;;5039747;28;20037;-66
2021/05/18 14:55:24;;;;;;;2.38;0.30;;;16.30;99.30;;;;;;5040547;28;20075;-68
2021/05/18 14:57:50;;;;;;;;;;;16.40;98.70;;;;;;5035357;28;20079;-69
2021/05/18 15:00:17;;;;;;;1.95;0.45;;;16.50;98.20;;;;;;5041599;28;19920;-68
2021/05/18 15:02:42;;;;;;;1.55;0.40;;;16.40;98.00;;;;;;5039218;28;20414;-68
2021/05/18 15:05:09;;;;;;;6.05;0.20;;;16.40;98.10;;;;;;5034488;28;20421;-69
2021/05/18 15:07:35;;;;;;;1.27;0.30;;;16.30;98.70;;;;;;5035375;28;20035;-68
2021/05/18 15:10:00;;;;;;;3.20;0.30;;;16.30;96.30;;;;;;5039027;28;20457;-70
2021/05/18 15:12:26;;;;;;;0.20;0.10;;;16.30;96.30;;;;;;5039187;28;20044;-68
2021/05/18 15:14:51;;;;;;;1.48;0.95;;;16.30;94.20;;;;;;5037374;28;20112;-68
2021/05/18 15:17:17;;;;;;;0.50;0.20;;;16.30;95.60;;;;;;5040735;28;20491;-70
2021/05/18 15:19:45;;;;;;;0.70;0.20;;;16.20;97.00;;;;;;5038973;28;20554;-69
2021/05/18 15:22:11;;;;;;;4.22;0.40;;;16.20;97.40;;;;;;5033797;28;20041;-68
2021/05/18 15:24:37;;;;;;;0.70;0.30;;;16.30;97.40;;;;;;5039305;28;20033;-70
2021/05/18 15:27:05;;;;;;;2.60;0.43;;;16.30;96.40;;;;;;5034908;28;20028;-69
2021/05/18 15:29:31;;;;;;;0.43;0.10;;;16.30;96.30;;;;;;5038767;28;20117;-68
2021/05/18 15:31:57;;;;;;;3.17;0.25;;;16.20;95.20;;;;;;5038944;28;20021;-68
2021/05/18 15:34:22;;;;;;;1.17;0.20;;;16.20;95.20;;;;;;5039987;28;20048;-66
2021/05/18 15:36:48;;;;;;;0.95;0.20;;;16.30;95.90;;;;;;5038168;28;20055;-69
2021/05/18 15:39:14;;;;;;;1.75;0.20;;;16.10;93.80;;;;;;5037925;28;20021;-69
2021/05/18 15:41:40;;;;;;;1.05;0.20;;;16.00;94.70;;;;;;5036177;28;20487;-69
2021/05/18 15:44:07;;;;;;;0.30;0.15;;;15.90;94.60;;;;;;5037858;28;20053;-69
2021/05/18 15:46:32;;;;;;;0.82;0.38;;;15.80;95.20;;;;;;5038405;28;20044;-68
2021/05/18 15:48:58;;;;;;;1.13;0.20;;;15.80;96.90;;;;;;5037567;28;20091;-69
2021/05/18 15:51:24;;;;;;;1.38;0.22;;;15.80;96.30;;;;;;5043278;28;20037;-68
2021/05/18 15:53:49;;;;;;;4.85;0.60;;;15.70;96.70;;;;;;5042545;28;20509;-69
2021/05/18 15:56:15;;;;;;;1.35;0.30;;;15.70;97.20;;;;;;5042140;28;20506;-68
2021/05/18 15:58:41;;;;;;;1.27;0.20;;;15.50;98.10;;;;;;5043096;28;20048;-69
2021/05/18 16:01:06;;;;;;;2.22;0.85;;;15.50;97.90;;;;;;5042569;28;20068;-68
2021/05/18 16:03:32;;;;;;;1.08;0.20;;;15.60;96.50;;;;;;5041093;28;20044;-68
2021/05/18 16:06:00;;;;;;;4.43;0.55;;;15.60;96.60;;;;;;5039501;28;20301;-71
2021/05/18 16:10:55;;;;;;;2.00;0.25;;;15.60;96.20;;;;;;5044612;28;20071;-70
2021/05/18 16:13:20;;;;;;;3.78;0.43;;;15.60;97.60;;;;;;5041005;28;20121;-69
2021/05/18 16:15:46;;;;;;;4.30;0.63;;;15.60;97.50;;;;;;5039502;28;20124;-70
2021/05/18 16:18:13;;;;;;;0.63;0.20;;;15.60;97.60;;;;;;5041635;28;20041;-69
2021/05/18 16:20:38;;;;;;;1.25;0.10;;;15.70;97.10;;;;;;5044864;28;20029;-70
2021/05/18 16:23:05;;;;;;;3.92;0.45;;;15.70;96.00;;;;;;5042793;28;20107;-70
2021/05/18 16:25:31;;;;;;;2.40;0.30;;;15.60;97.20;;;;;;5040892;28;20025;-70
2021/05/18 16:27:56;;;;;;;1.25;0.43;;;15.60;97.70;;;;;;5040794;28;20036;-70
2021/05/18 16:30:22;;;;;;;2.17;0.30;;;15.60;97.20;;;;;;5038295;28;20454;-70
2021/05/18 16:32:47;;;;;;;3.67;0.40;;;15.60;98.30;;;;;;5041137;28;20088;-70
2021/05/18 16:35:13;;;;;;;2.33;0.32;;;15.50;96.90;;;;;;5038893;28;20608;-70
2021/05/18 16:37:39;;;;;;;2.83;0.50;;;15.40;96.90;;;;;;5038816;28;20478;-70
2021/05/18 16:40:06;;;;;;;6.95;0.40;;;15.40;97.20;;;;;;5037365;28;20029;-70
2021/05/18 16:42:35;;;;;;;2.28;0.35;;;15.30;98.00;;;;;;5040120;28;20501;-71
2021/05/18 16:45:02;;;;;;;6.72;0.47;;;15.30;98.70;;;;;;5035870;28;20542;-71
2021/05/18 16:47:27;;;;;;;2.95;0.30;;;15.20;98.70;;;;;;5036027;28;20030;-71
2021/05/18 16:49:53;;;;;;;1.50;0.30;;;15.10;98.50;;;;;;5040797;28;20435;-70
2021/05/18 16:52:19;;;;;;;1.00;0.30;;;15.00;98.50;;;;;;5034780;28;20041;-71
2021/05/18 16:54:44;;;;;;;3.40;0.57;;;15.00;99.20;;;;;;5040200;28;20040;-70
2021/05/18 16:57:10;;;;;;;3.47;0.40;;;15.00;99.90;;;;;;5038529;28;20455;-71
2021/05/18 16:59:36;;;;;;;2.67;0.30;;;15.00;99.80;;;;;;5038630;28;20063;-70
2021/05/18 17:02:02;;;;;;;2.92;0.50;;;14.90;99.50;;;;;;5035335;28;20037;-70
2021/05/18 17:04:27;;;;;;;1.85;0.30;;;14.90;99.90;;;;;;5036725;28;20635;-70
2021/05/18 17:06:54;;;;;;;3.30;0.30;;;14.90;99.20;;;;;;5036935;28;20044;-71
2021/05/18 17:09:20;;;;;;;2.85;0.32;;;14.90;99.00;;;;;;5040876;28;20057;-70
2021/05/18 17:11:46;;;;;;;3.55;0.40;;;14.90;99.10;;;;;;5040915;28;20597;-71
2021/05/18 17:14:12;;;;;;;4.03;0.50;;;14.80;99.90;;;;;;5038475;28;20036;-71
2021/05/18 17:16:39;;;;;;;3.30;0.65;;;14.70;99.90;;;;;;5037934;28;20399;-70
2021/05/18 17:19:05;;;;;;;2.33;0.20;;;14.70;99.90;;;;;;5035782;28;20026;-70
2021/05/18 17:21:31;;;;;;;0.32;0.15;;;14.70;99.50;;;;;;5031767;28;20041;-70
2021/05/18 17:23:57;;;;;;;1.55;0.57;;;14.60;99.90;;;;;;5038531;28;20056;-70
2021/05/18 17:26:23;;;;;;;3.75;0.60;;;14.60;99.90;;;;;;5037389;28;20068;-73
2021/05/18 17:28:49;;;;;;;1.65;0.63;;;14.50;99.90;;;;;;5038853;28;20372;-71
2021/05/18 17:31:15;;;;;;;1.33;0.52;;;14.50;99.90;;;;;;5039109;28;20442;-70
2021/05/18 17:33:42;;;;;;;4.30;0.75;;;14.50;99.90;;;;;;5039080;28;20083;-70
2021/05/18 17:36:08;;;;;;;3.42;0.93;;;14.40;99.90;;;;;;5036961;28;20033;-70
2021/05/18 17:38:33;;;;;;;7.82;1.00;;;14.40;99.90;;;;;;5040764;28;20036;-71
2021/05/18 17:41:01;;;;;;;4.15;0.88;;;14.30;99.90;;;;;;5038461;28;20036;-70
2021/05/18 17:43:27;;;;;;;3.45;0.90;;;14.40;99.90;;;;;;5040111;28;20065;-70
2021/05/18 17:45:53;;;;;;;4.00;0.73;;;14.30;99.90;;;;;;5053767;28;20029;-71
2021/05/18 17:48:18;;;;;;;1.40;0.77;;;14.20;99.90;;;;;;5050682;28;20040;-70
2021/05/18 17:50:44;;;;;;;5.60;0.73;;;14.20;99.90;;;;;;5042748;28;20030;-70